Time;durP1;ratioP1;P1;durP2;ratioP2;P2;SDS_P1;SDS_P2;PMS_P1;PMS_P2;Temp;Humidity;BMP_temperature;BMP_pressure;BME280_temperature;BME280_humidity;BME280_pressure;Samples;Min_cycle;Max_cycle;Signal;HPM_P1;HPM_P2
2021/11/03 00:00:45;;;;;;;4.90;2.60;;;6.60;95.50;;;;;;5070119;28;20487;-74
2021/11/03 00:03:11;;;;;;;5.30;3.30;;;6.60;95.60;;;;;;5070660;28;20200;-73
2021/11/03 00:05:44;;;;;;;5.93;3.60;;;6.60;95.60;;;;;;5070530;28;20450;-74
2021/11/03 00:08:16;;;;;;;3.60;2.97;;;6.60;95.70;;;;;;5069657;28;20428;-75
2021/11/03 00:10:44;;;;;;;4.07;2.70;;;6.60;95.90;;;;;;5070557;28;20408;-75
2021/11/03 00:13:12;;;;;;;10.60;3.10;;;6.60;95.90;;;;;;5070779;28;20419;-75
2021/11/03 00:15:38;;;;;;;3.50;2.30;;;6.60;96.00;;;;;;5073687;28;20857;-73
2021/11/03 00:18:04;;;;;;;4.70;2.83;;;6.60;96.00;;;;;;5074270;28;20423;-75
2021/11/03 00:20:30;;;;;;;6.53;3.10;;;6.60;96.00;;;;;;5077700;28;20439;-77
2021/11/03 00:22:57;;;;;;;7.50;3.27;;;6.60;96.00;;;;;;5073998;28;20435;-75
2021/11/03 00:25:23;;;;;;;4.13;2.83;;;6.60;96.00;;;;;;5071994;28;20463;-75
2021/11/03 00:27:49;;;;;;;4.93;2.67;;;6.60;96.00;;;;;;5069986;28;20816;-75
2021/11/03 00:30:14;;;;;;;3.57;3.00;;;6.50;96.00;;;;;;5068764;28;20430;-73
2021/11/03 00:32:40;;;;;;;5.20;3.43;;;6.50;96.00;;;;;;5069455;28;20192;-74
2021/11/03 00:35:06;;;;;;;8.03;3.90;;;6.50;96.10;;;;;;5068898;28;20169;-74
2021/11/03 00:37:32;;;;;;;7.70;3.43;;;6.50;96.10;;;;;;5070324;28;20165;-75
2021/11/03 00:39:58;;;;;;;4.60;3.23;;;6.50;96.10;;;;;;5052028;28;20411;-75
2021/11/03 00:42:23;;;;;;;5.83;3.50;;;6.50;96.20;;;;;;5068977;28;20173;-75
2021/11/03 00:44:49;;;;;;;6.20;3.57;;;6.40;96.20;;;;;;5070121;28;20200;-74
2021/11/03 00:47:15;;;;;;;3.80;2.30;;;6.40;96.20;;;;;;5069887;28;20530;-73
2021/11/03 00:49:41;;;;;;;5.17;3.70;;;6.40;96.60;;;;;;5068982;28;20506;-74
2021/11/03 00:52:07;;;;;;;5.00;2.80;;;6.30;96.30;;;;;;5069610;28;20265;-75
2021/11/03 00:54:34;;;;;;;7.33;3.50;;;6.30;96.30;;;;;;5069789;28;20193;-74
2021/11/03 00:56:59;;;;;;;14.30;2.87;;;6.30;96.40;;;;;;5072889;28;20415;-75
2021/11/03 00:59:25;;;;;;;6.00;3.37;;;6.30;96.50;;;;;;5073055;28;20809;-74
2021/11/03 01:01:51;;;;;;;4.20;3.10;;;6.30;96.50;;;;;;5073370;28;20185;-74
2021/11/03 01:04:17;;;;;;;4.57;3.70;;;6.30;96.50;;;;;;5057812;28;20208;-75
2021/11/03 01:06:42;;;;;;;3.53;2.13;;;6.30;96.50;;;;;;5080617;28;20450;-74
2021/11/03 01:09:08;;;;;;;3.17;2.80;;;6.30;96.60;;;;;;5072945;28;20535;-74
2021/11/03 01:11:35;;;;;;;5.90;2.90;;;6.30;96.60;;;;;;5071647;28;20165;-74
2021/11/03 01:14:04;;;;;;;7.47;3.60;;;6.30;96.60;;;;;;5072024;28;20446;-74
2021/11/03 01:16:30;;;;;;;4.27;2.93;;;6.30;96.70;;;;;;5074288;28;20457;-74
2021/11/03 01:18:56;;;;;;;4.93;2.90;;;6.30;96.70;;;;;;5072495;28;20415;-74
2021/11/03 01:21:22;;;;;;;6.30;3.10;;;6.30;96.70;;;;;;5076742;28;20758;-76
2021/11/03 01:23:48;;;;;;;3.60;2.97;;;6.30;96.80;;;;;;5078551;28;20230;-76
2021/11/03 01:26:14;;;;;;;7.40;3.50;;;6.30;96.90;;;;;;5072371;28;20407;-75
2021/11/03 01:28:40;;;;;;;5.50;3.43;;;6.30;97.00;;;;;;5055357;28;20485;-73
2021/11/03 01:31:06;;;;;;;6.20;3.40;;;6.30;97.00;;;;;;5071242;28;20437;-74
2021/11/03 01:33:31;;;;;;;5.03;4.00;;;6.40;97.10;;;;;;5072797;28;20185;-75
2021/11/03 01:35:57;;;;;;;6.30;3.10;;;6.40;97.00;;;;;;5071888;28;20192;-75
2021/11/03 01:38:23;;;;;;;6.80;3.40;;;6.40;96.90;;;;;;5071364;28;20169;-75
2021/11/03 01:40:50;;;;;;;6.17;3.83;;;6.40;96.80;;;;;;5072101;28;20406;-74
2021/11/03 01:43:39;;;;;;;5.50;3.30;;;6.30;96.80;;;;;;5071274;28;20270;-74
2021/11/03 01:46:37;;;;;;;3.13;2.80;;;6.20;96.70;;;;;;5061869;28;20423;-73
2021/11/03 01:49:14;;;;;;;5.70;3.37;;;6.20;96.90;;;;;;5065037;28;20508;-75
2021/11/03 01:52:01;;;;;;;4.00;3.47;;;6.20;97.00;;;;;;5071174;28;20833;-74
2021/11/03 01:54:35;;;;;;;6.00;2.87;;;6.10;97.00;;;;;;5070962;28;20956;-75
2021/11/03 01:57:08;;;;;;;8.57;5.67;;;6.10;97.00;;;;;;5072169;28;20932;-73
2021/11/03 01:59:38;;;;;;;6.43;3.30;;;6.10;97.20;;;;;;5054479;28;20693;-74
2021/11/03 02:02:05;;;;;;;4.30;2.60;;;6.10;97.20;;;;;;5070774;28;20427;-75
2021/11/03 02:04:33;;;;;;;3.30;2.63;;;6.10;97.20;;;;;;5071083;28;20485;-74
2021/11/03 02:07:02;;;;;;;6.70;3.63;;;6.10;97.20;;;;;;5071248;28;20548;-74
2021/11/03 02:09:28;;;;;;;5.83;3.30;;;6.10;97.30;;;;;;5070819;28;20411;-74
2021/11/03 02:11:54;;;;;;;3.93;3.03;;;6.00;97.10;;;;;;5070721;28;20408;-74
2021/11/03 02:14:20;;;;;;;5.97;3.90;;;6.00;97.10;;;;;;5070672;28;20450;-74
2021/11/03 02:16:48;;;;;;;6.53;3.50;;;6.00;97.20;;;;;;5072633;28;20173;-74
2021/11/03 02:19:19;;;;;;;6.87;3.60;;;6.00;97.30;;;;;;5071208;28;20403;-74
2021/11/03 02:22:27;;;;;;;5.20;3.43;;;6.00;97.30;;;;;;5070659;28;20427;-74
2021/11/03 02:25:06;;;;;;;6.03;3.33;;;6.00;97.40;;;;;;5039849;28;20467;-75
2021/11/03 02:27:35;;;;;;;5.60;3.53;;;6.00;97.40;;;;;;5070698;28;20480;-74
2021/11/03 02:30:02;;;;;;;4.80;3.43;;;5.90;97.40;;;;;;5070333;28;20411;-74
2021/11/03 02:32:31;;;;;;;4.73;3.47;;;5.90;97.50;;;;;;5070033;28;20502;-75
2021/11/03 02:34:57;;;;;;;4.87;3.27;;;5.90;97.90;;;;;;5071993;28;20814;-75
2021/11/03 02:37:29;;;;;;;5.63;4.03;;;5.90;97.50;;;;;;5070643;28;20407;-73
2021/11/03 02:40:10;;;;;;;5.70;3.37;;;5.90;97.50;;;;;;5070051;28;20431;-75
2021/11/03 02:42:39;;;;;;;4.27;3.20;;;5.90;97.60;;;;;;5069839;28;20426;-74
2021/11/03 02:45:12;;;;;;;6.87;4.20;;;5.90;97.50;;;;;;5070159;28;20832;-73
2021/11/03 02:47:38;;;;;;;6.10;4.20;;;5.90;97.60;;;;;;5070740;28;21022;-75
2021/11/03 02:50:10;;;;;;;6.47;3.37;;;5.80;97.50;;;;;;5070197;28;20447;-75
2021/11/03 02:52:36;;;;;;;7.87;3.83;;;5.80;97.50;;;;;;5068902;28;20196;-74
2021/11/03 02:55:05;;;;;;;4.60;3.70;;;5.80;97.60;;;;;;5069995;28;20494;-74
2021/11/03 02:57:31;;;;;;;5.40;3.23;;;5.80;97.80;;;;;;5053618;28;20169;-75
2021/11/03 02:59:57;;;;;;;6.60;4.27;;;5.80;97.70;;;;;;5069955;28;20443;-74
2021/11/03 03:02:23;;;;;;;7.53;4.33;;;5.80;97.80;;;;;;5069274;28;20430;-74
2021/11/03 03:04:52;;;;;;;13.50;4.23;;;5.70;97.70;;;;;;5070180;28;20451;-74
2021/11/03 03:07:20;;;;;;;6.00;4.30;;;5.70;97.70;;;;;;5070082;28;20519;-74
2021/11/03 03:09:47;;;;;;;5.70;4.00;;;5.70;97.80;;;;;;5069478;28;20412;-74
2021/11/03 03:12:18;;;;;;;8.33;5.20;;;5.70;97.90;;;;;;5069695;28;20406;-74
2021/11/03 03:14:48;;;;;;;7.63;5.30;;;5.70;97.90;;;;;;5053430;28;20411;-75
2021/11/03 03:17:17;;;;;;;8.33;5.03;;;5.70;97.90;;;;;;5069962;28;20419;-75
2021/11/03 03:19:43;;;;;;;8.53;4.50;;;5.70;97.90;;;;;;5069511;28;20479;-74
2021/11/03 03:22:11;;;;;;;9.10;5.90;;;5.70;97.80;;;;;;5069290;28;20418;-74
2021/11/03 03:24:38;;;;;;;6.47;4.10;;;5.80;97.90;;;;;;5069538;28;20458;-74
2021/11/03 03:27:05;;;;;;;8.77;5.80;;;5.80;97.90;;;;;;5069711;28;20777;-75
2021/11/03 03:29:31;;;;;;;8.57;5.10;;;5.80;97.80;;;;;;5068663;28;20407;-74
2021/11/03 03:31:57;;;;;;;6.97;4.73;;;5.80;97.80;;;;;;5068745;28;20418;-73
2021/11/03 03:34:25;;;;;;;9.83;5.57;;;5.80;97.80;;;;;;5070757;28;20428;-75
2021/11/03 03:36:53;;;;;;;8.93;5.13;;;5.80;97.90;;;;;;5069368;28;20223;-74
2021/11/03 03:39:21;;;;;;;7.93;5.07;;;5.80;97.80;;;;;;5069228;28;20982;-74
2021/11/03 03:41:53;;;;;;;7.70;5.13;;;5.80;97.70;;;;;;5068741;28;20823;-74
2021/11/03 03:44:19;;;;;;;9.37;5.83;;;5.80;97.80;;;;;;5069258;28;20458;-74
2021/11/03 03:46:49;;;;;;;7.17;4.90;;;5.80;97.80;;;;;;5069842;28;20404;-74
2021/11/03 03:49:15;;;;;;;8.37;5.20;;;5.80;97.90;;;;;;5066699;28;20414;-74
2021/11/03 03:51:41;;;;;;;8.60;5.20;;;5.80;97.80;;;;;;5068604;28;20169;-75
2021/11/03 03:54:07;;;;;;;8.23;5.63;;;5.80;97.80;;;;;;5070317;28;20504;-74
2021/11/03 03:56:32;;;;;;;8.50;5.70;;;5.80;97.80;;;;;;5068924;28;20219;-74
2021/11/03 03:58:58;;;;;;;8.77;5.13;;;5.80;97.80;;;;;;5068839;28;20250;-74
2021/11/03 04:01:26;;;;;;;10.50;6.13;;;5.80;97.90;;;;;;5069710;28;20187;-74
2021/11/03 04:03:55;;;;;;;8.27;6.00;;;5.80;98.10;;;;;;5068675;28;20528;-74
2021/11/03 04:06:22;;;;;;;11.27;6.07;;;5.80;98.10;;;;;;5052228;28;20609;-74
2021/11/03 04:08:48;;;;;;;9.87;6.63;;;5.80;98.10;;;;;;5052260;28;20407;-73
2021/11/03 04:11:14;;;;;;;10.00;5.60;;;5.80;98.10;;;;;;5067491;28;20414;-73
2021/11/03 04:13:40;;;;;;;6.80;4.90;;;5.80;98.10;;;;;;5070280;28;20187;-74
2021/11/03 04:16:07;;;;;;;9.53;5.97;;;5.80;98.10;;;;;;5068538;28;20408;-75
2021/11/03 04:18:33;;;;;;;8.87;5.80;;;5.80;98.20;;;;;;5068949;28;20804;-73
2021/11/03 04:20:59;;;;;;;11.27;6.60;;;5.80;98.20;;;;;;5067683;28;20560;-73
2021/11/03 04:23:26;;;;;;;10.50;5.53;;;5.80;98.20;;;;;;5068503;28;20770;-74
2021/11/03 04:25:52;;;;;;;9.70;5.87;;;5.80;98.20;;;;;;5068665;28;20478;-74
2021/11/03 04:28:18;;;;;;;8.90;5.20;;;5.80;98.30;;;;;;5068693;28;20484;-74
2021/11/03 04:30:45;;;;;;;9.70;7.10;;;5.80;98.30;;;;;;5050561;28;20848;-74
2021/11/03 04:33:13;;;;;;;11.13;6.67;;;5.80;98.40;;;;;;5068875;28;20217;-74
2021/11/03 04:35:39;;;;;;;8.90;5.53;;;5.80;98.40;;;;;;5068543;28;20596;-75
2021/11/03 04:38:06;;;;;;;10.33;6.00;;;5.80;98.40;;;;;;5068467;28;20484;-75
2021/11/03 04:40:32;;;;;;;13.47;7.63;;;5.80;98.40;;;;;;5068249;28;20423;-74
2021/11/03 04:42:59;;;;;;;11.50;6.70;;;5.90;98.50;;;;;;5068138;28;20429;-73
2021/11/03 04:45:27;;;;;;;13.40;6.73;;;5.90;98.50;;;;;;5068650;28;20562;-74
2021/11/03 04:47:53;;;;;;;11.57;7.27;;;5.90;98.50;;;;;;5051678;28;20841;-74
2021/11/03 04:50:25;;;;;;;12.23;6.20;;;5.90;98.80;;;;;;5068177;28;20418;-74
2021/11/03 04:52:51;;;;;;;11.10;7.13;;;5.90;98.50;;;;;;5067028;28;20419;-73
2021/11/03 04:55:18;;;;;;;15.30;7.97;;;5.90;98.50;;;;;;5068490;28;20784;-73
2021/11/03 04:57:44;;;;;;;10.77;6.93;;;5.90;98.50;;;;;;5068375;28;20415;-73
2021/11/03 05:00:19;;;;;;;17.20;7.83;;;5.90;98.50;;;;;;5068073;28;20453;-73
2021/11/03 05:02:45;;;;;;;11.63;7.03;;;5.90;98.60;;;;;;5067611;28;20200;-74
2021/11/03 05:05:11;;;;;;;11.07;7.10;;;5.90;98.60;;;;;;5068335;28;20484;-74
2021/11/03 05:07:37;;;;;;;11.03;6.33;;;5.90;98.60;;;;;;5068714;28;20685;-74
2021/11/03 05:10:03;;;;;;;13.50;6.83;;;5.90;98.50;;;;;;5068541;28;20161;-75
2021/11/03 05:12:29;;;;;;;12.13;7.00;;;5.90;98.60;;;;;;5067505;28;20444;-74
2021/11/03 05:14:55;;;;;;;11.97;7.30;;;5.90;98.70;;;;;;5070460;28;20411;-74
2021/11/03 05:17:21;;;;;;;12.80;7.27;;;6.00;98.80;;;;;;5069109;28;20165;-73
2021/11/03 05:19:49;;;;;;;15.13;7.37;;;5.90;98.70;;;;;;5069538;28;20191;-74
2021/11/03 05:22:22;;;;;;;13.83;7.30;;;6.00;98.80;;;;;;5068593;28;20411;-74
2021/11/03 05:24:48;;;;;;;11.23;6.83;;;6.00;98.80;;;;;;5052729;28;20542;-74
2021/11/03 05:27:14;;;;;;;13.40;7.13;;;6.00;98.80;;;;;;5070575;28;20589;-73
2021/11/03 05:29:40;;;;;;;10.80;7.10;;;6.00;98.80;;;;;;5069320;28;20173;-74
2021/11/03 05:32:07;;;;;;;14.53;8.50;;;6.00;98.80;;;;;;5070313;28;20504;-75
2021/11/03 05:34:32;;;;;;;15.47;7.60;;;6.00;99.20;;;;;;5070946;28;20454;-74
2021/11/03 05:36:58;;;;;;;13.47;6.80;;;6.00;98.90;;;;;;5075939;28;20415;-75
2021/11/03 05:39:24;;;;;;;11.33;5.77;;;6.00;98.90;;;;;;5074235;28;20354;-75
2021/11/03 05:41:49;;;;;;;12.80;7.30;;;6.00;98.90;;;;;;5070852;28;20177;-75
2021/11/03 05:44:17;;;;;;;12.30;7.13;;;6.00;99.00;;;;;;5073515;28;20677;-75
2021/11/03 05:46:49;;;;;;;15.43;8.40;;;6.10;99.00;;;;;;5076106;28;20173;-74
2021/11/03 05:49:16;;;;;;;13.80;7.57;;;6.10;99.10;;;;;;5074848;28;20411;-74
2021/11/03 05:51:46;;;;;;;11.93;7.07;;;6.20;99.00;;;;;;5073146;28;20821;-75
2021/11/03 05:54:12;;;;;;;9.00;6.40;;;6.20;98.90;;;;;;5053952;28;20451;-75
2021/11/03 05:56:39;;;;;;;12.60;6.80;;;6.20;98.80;;;;;;5066145;28;20461;-74
2021/11/03 05:59:06;;;;;;;10.83;6.13;;;6.20;98.60;;;;;;5076362;28;20423;-75
2021/11/03 06:01:32;;;;;;;12.03;7.63;;;6.20;98.60;;;;;;5070661;28;20200;-74
2021/11/03 06:03:57;;;;;;;12.40;7.50;;;6.20;98.40;;;;;;5070059;28;20451;-75
2021/11/03 06:06:24;;;;;;;12.00;6.73;;;6.20;98.30;;;;;;5044584;28;20205;-75
2021/11/03 06:08:51;;;;;;;14.77;7.30;;;6.20;98.40;;;;;;5068834;28;20869;-76
2021/11/03 06:11:19;;;;;;;11.47;5.67;;;6.30;98.50;;;;;;5071740;28;20415;-76
2021/11/03 06:13:47;;;;;;;11.63;6.13;;;6.30;98.50;;;;;;5073119;28;20435;-75
2021/11/03 06:16:13;;;;;;;10.50;6.67;;;6.30;98.40;;;;;;5076471;28;20868;-75
2021/11/03 06:18:39;;;;;;;10.40;7.30;;;6.40;98.30;;;;;;5075353;28;20873;-76
2021/11/03 06:21:05;;;;;;;11.30;6.70;;;6.40;98.30;;;;;;5055170;28;20435;-76
2021/11/03 06:23:31;;;;;;;10.80;6.40;;;6.40;98.20;;;;;;5072938;28;20450;-76
2021/11/03 06:25:57;;;;;;;11.13;7.27;;;6.40;98.20;;;;;;5073634;28;20554;-76
2021/11/03 06:28:23;;;;;;;13.07;7.00;;;6.40;98.10;;;;;;5073300;28;20403;-76
2021/11/03 06:30:49;;;;;;;13.70;8.07;;;6.50;98.10;;;;;;5073627;28;20161;-76
2021/11/03 06:33:15;;;;;;;13.73;7.33;;;6.50;98.10;;;;;;5072780;28;20982;-76
2021/11/03 06:35:42;;;;;;;11.10;6.80;;;6.50;98.00;;;;;;5074633;28;20403;-76
2021/11/03 06:38:09;;;;;;;11.50;6.83;;;6.50;98.00;;;;;;5070711;28;20176;-76
2021/11/03 06:40:37;;;;;;;12.50;6.30;;;6.60;98.00;;;;;;5071343;28;20427;-76
2021/11/03 06:43:04;;;;;;;9.93;6.53;;;6.60;97.90;;;;;;5073204;28;20430;-76
2021/11/03 06:45:30;;;;;;;9.30;6.00;;;6.60;97.90;;;;;;5071593;28;20871;-74
2021/11/03 06:47:56;;;;;;;15.20;6.90;;;6.60;97.90;;;;;;5071862;28;20407;-77
2021/11/03 06:50:28;;;;;;;11.90;7.03;;;6.60;97.80;;;;;;5072093;28;20169;-76
2021/11/03 06:52:57;;;;;;;12.20;6.50;;;6.70;97.80;;;;;;5070356;28;20443;-75
2021/11/03 06:55:24;;;;;;;11.33;7.40;;;6.70;97.70;;;;;;5075752;28;20415;-76
2021/11/03 06:57:50;;;;;;;11.53;6.90;;;6.70;98.00;;;;;;5079199;28;20442;-77
2021/11/03 07:00:21;;;;;;;11.13;6.53;;;6.70;97.50;;;;;;5076808;28;20820;-77
2021/11/03 07:02:47;;;;;;;10.97;6.50;;;6.80;97.50;;;;;;5078521;28;20465;-77
2021/11/03 07:05:13;;;;;;;10.57;6.50;;;6.70;97.40;;;;;;5076406;28;20468;-77
2021/11/03 07:07:39;;;;;;;13.97;7.53;;;6.80;97.20;;;;;;5076560;28;20412;-76
2021/11/03 07:10:08;;;;;;;11.07;6.43;;;6.80;97.20;;;;;;5072567;28;20610;-76
2021/11/03 07:12:34;;;;;;;12.80;6.63;;;6.80;97.20;;;;;;5073584;28;20448;-76
2021/11/03 07:15:00;;;;;;;10.63;5.57;;;6.80;96.90;;;;;;5075738;28;20483;-77
2021/11/03 07:17:25;;;;;;;9.43;5.83;;;6.80;96.90;;;;;;5076783;28;20439;-76
2021/11/03 07:19:51;;;;;;;11.57;7.07;;;6.80;96.90;;;;;;5074991;28;20246;-76
2021/11/03 07:22:17;;;;;;;10.50;5.80;;;6.80;96.70;;;;;;5078239;28;20189;-77
2021/11/03 07:24:43;;;;;;;11.33;6.80;;;6.80;96.60;;;;;;5077973;28;20196;-75
2021/11/03 07:27:09;;;;;;;9.50;4.80;;;6.80;96.70;;;;;;5077091;28;20458;-76
2021/11/03 07:29:34;;;;;;;15.37;8.30;;;6.90;96.70;;;;;;5076629;28;20169;-77
2021/11/03 07:32:00;;;;;;;7.23;4.97;;;6.90;96.70;;;;;;5076290;28;20777;-76
2021/11/03 07:34:26;;;;;;;10.90;6.63;;;6.90;96.40;;;;;;5081999;28;20534;-77
2021/11/03 07:36:53;;;;;;;8.60;5.10;;;7.00;96.50;;;;;;5081633;28;20418;-77
2021/11/03 07:39:19;;;;;;;9.83;5.63;;;7.00;96.40;;;;;;5077063;28;20407;-76
2021/11/03 07:41:45;;;;;;;9.27;5.87;;;7.00;96.10;;;;;;5081470;28;20438;-77
2021/11/03 07:44:13;;;;;;;10.07;5.77;;;7.00;96.10;;;;;;5073444;28;20455;-77
2021/11/03 07:46:39;;;;;;;9.20;6.17;;;7.00;96.00;;;;;;5074134;28;20790;-78
2021/11/03 07:49:05;;;;;;;9.23;5.87;;;7.10;96.00;;;;;;5074621;28;20522;-77
2021/11/03 07:51:31;;;;;;;11.00;6.20;;;7.10;95.90;;;;;;5072700;28;20411;-76
2021/11/03 07:53:59;;;;;;;8.20;5.07;;;7.10;95.90;;;;;;5069900;28;20693;-76
2021/11/03 07:56:27;;;;;;;16.67;6.23;;;7.20;96.00;;;;;;5073228;28;20407;-77
2021/11/03 07:58:54;;;;;;;10.87;5.80;;;7.20;95.80;;;;;;5073254;28;20809;-77
2021/11/03 08:01:23;;;;;;;11.70;6.07;;;7.30;95.80;;;;;;5055642;28;20541;-76
2021/11/03 08:03:50;;;;;;;9.20;6.50;;;7.30;95.50;;;;;;5071428;28;20424;-76
2021/11/03 08:06:16;;;;;;;9.80;5.10;;;7.30;95.50;;;;;;5072802;28;20404;-76
2021/11/03 08:08:46;;;;;;;13.00;6.20;;;7.40;95.60;;;;;;5070929;28;20933;-76
2021/11/03 08:11:14;;;;;;;10.60;6.00;;;7.40;95.60;;;;;;5073105;28;20409;-77
2021/11/03 08:13:41;;;;;;;14.10;6.90;;;7.50;95.50;;;;;;5073833;28;20446;-74
2021/11/03 08:16:08;;;;;;;10.50;5.93;;;7.50;95.40;;;;;;5074377;28;20408;-77
2021/11/03 08:18:39;;;;;;;10.47;5.27;;;7.60;95.30;;;;;;5073421;28;20421;-75
2021/11/03 08:21:10;;;;;;;6.80;5.10;;;7.60;95.20;;;;;;5072857;28;20513;-76
2021/11/03 08:23:35;;;;;;;11.37;7.23;;;7.60;95.10;;;;;;5072507;28;20489;-77
2021/11/03 08:26:01;;;;;;;7.43;4.13;;;7.60;95.30;;;;;;5074065;28;20875;-77
2021/11/03 08:28:27;;;;;;;13.50;6.43;;;7.60;94.60;;;;;;5073597;28;20161;-76
2021/11/03 08:30:54;;;;;;;9.40;5.40;;;7.60;94.40;;;;;;5074167;28;20161;-77
2021/11/03 08:33:23;;;;;;;9.40;5.87;;;7.60;94.80;;;;;;5074359;28;20197;-75
2021/11/03 08:35:53;;;;;;;8.20;5.90;;;7.70;95.10;;;;;;5055762;28;20514;-75
2021/11/03 08:38:21;;;;;;;14.20;7.67;;;7.70;94.50;;;;;;5071906;28;20411;-76
2021/11/03 08:40:49;;;;;;;10.60;5.63;;;7.70;94.80;;;;;;5054908;28;20526;-76
2021/11/03 08:43:18;;;;;;;12.30;6.03;;;7.80;94.90;;;;;;5072095;28;20438;-76
2021/11/03 08:45:48;;;;;;;7.97;6.10;;;7.80;94.80;;;;;;5073818;28;20459;-76
2021/11/03 08:48:14;;;;;;;10.73;6.60;;;7.90;94.80;;;;;;5074512;28;20423;-77
2021/11/03 08:50:43;;;;;;;8.00;5.27;;;7.90;94.60;;;;;;5074396;28;21009;-72
2021/11/03 08:53:14;;;;;;;14.07;6.67;;;7.90;94.50;;;;;;5072329;28;20423;-77
2021/11/03 08:55:45;;;;;;;9.03;5.80;;;8.00;94.70;;;;;;5075776;28;20415;-77
2021/11/03 08:58:14;;;;;;;9.27;4.90;;;8.00;94.40;;;;;;5055571;28;20451;-76
2021/11/03 09:00:42;;;;;;;12.53;6.70;;;8.10;94.50;;;;;;5072631;28;20426;-74
2021/11/03 09:03:09;;;;;;;12.90;5.87;;;8.10;94.60;;;;;;5072797;28;20451;-75
2021/11/03 09:05:35;;;;;;;9.77;6.27;;;8.20;94.50;;;;;;5054449;28;20459;-77
2021/11/03 09:08:01;;;;;;;7.10;4.70;;;8.30;94.40;;;;;;5054959;28;20417;-77
2021/11/03 09:10:30;;;;;;;7.20;5.07;;;8.30;94.20;;;;;;5072364;28;20743;-77
2021/11/03 09:13:00;;;;;;;10.50;6.53;;;8.30;94.00;;;;;;5085680;22;21143;-75
2021/11/03 09:15:26;;;;;;;7.20;5.27;;;8.30;94.10;;;;;;5031549;28;20413;-77
2021/11/03 09:17:53;;;;;;;8.67;4.73;;;8.30;94.10;;;;;;5017074;28;20409;-76
2021/11/03 09:20:20;;;;;;;7.80;5.10;;;8.30;93.90;;;;;;5034750;28;20408;-77
2021/11/03 09:22:45;;;;;;;9.50;5.50;;;8.40;94.20;;;;;;5035054;28;20917;-76
2021/11/03 09:25:16;;;;;;;9.63;5.30;;;8.40;94.00;;;;;;5035619;28;20455;-76
2021/11/03 09:27:43;;;;;;;8.80;5.90;;;8.40;94.20;;;;;;5035040;28;20162;-77
2021/11/03 09:30:11;;;;;;;10.40;5.77;;;8.40;94.40;;;;;;5034904;28;20488;-76
2021/11/03 09:32:42;;;;;;;13.10;6.63;;;8.50;94.30;;;;;;5034474;28;20777;-76
2021/11/03 09:35:10;;;;;;;8.27;5.17;;;8.50;94.40;;;;;;5035069;28;20405;-76
2021/11/03 09:37:37;;;;;;;8.47;5.43;;;8.50;94.30;;;;;;5035289;28;20417;-77
2021/11/03 09:40:05;;;;;;;8.80;5.37;;;8.60;94.50;;;;;;5016720;28;20981;-75
2021/11/03 09:42:31;;;;;;;7.60;5.30;;;8.60;94.80;;;;;;5034218;28;20429;-77
2021/11/03 09:44:57;;;;;;;17.33;6.07;;;8.60;94.20;;;;;;5016834;28;20568;-76
2021/11/03 09:47:29;;;;;;;7.63;4.97;;;8.50;94.40;;;;;;5035622;28;21017;-77
2021/11/03 09:49:58;;;;;;;8.80;5.90;;;8.60;94.50;;;;;;5035236;28;20509;-76
2021/11/03 09:52:29;;;;;;;11.33;6.20;;;8.60;94.40;;;;;;5034640;28;20464;-77
2021/11/03 09:55:17;;;;;;;12.37;6.93;;;8.50;94.50;;;;;;5034444;28;20440;-76
2021/11/03 09:58:02;;;;;;;15.03;7.70;;;8.60;94.50;;;;;;4999978;28;20483;-76
2021/11/03 10:00:45;;;;;;;8.80;5.57;;;8.60;94.60;;;;;;5035247;28;20401;-77
2021/11/03 10:03:25;;;;;;;9.90;5.80;;;8.60;94.50;;;;;;5034212;28;20841;-75
2021/11/03 10:06:07;;;;;;;12.03;6.43;;;8.60;94.70;;;;;;5034436;28;20452;-75
2021/11/03 10:08:42;;;;;;;12.13;7.10;;;8.70;94.80;;;;;;5016269;28;20431;-77
2021/11/03 10:11:25;;;;;;;13.60;7.17;;;8.70;94.80;;;;;;5033592;28;20944;-77
2021/11/03 10:13:56;;;;;;;7.87;5.40;;;8.70;94.70;;;;;;5034350;28;20436;-77
2021/11/03 10:16:28;;;;;;;8.80;5.47;;;8.80;94.70;;;;;;5034935;28;20471;-76
2021/11/03 10:19:05;;;;;;;9.47;6.67;;;8.80;94.80;;;;;;5036786;28;20413;-75
2021/11/03 10:21:31;;;;;;;14.93;6.10;;;8.80;94.80;;;;;;5033804;28;20482;-76
2021/11/03 10:24:00;;;;;;;10.30;6.73;;;8.80;94.70;;;;;;5033962;28;20444;-77
2021/11/03 10:26:28;;;;;;;9.27;5.70;;;8.90;94.80;;;;;;5034201;28;20277;-76
2021/11/03 10:29:15;;;;;;;8.27;5.93;;;8.90;94.40;;;;;;5033042;28;20982;-77
2021/11/03 10:31:57;;;;;;;8.40;5.50;;;8.90;94.30;;;;;;5033633;28;20405;-75
2021/11/03 10:34:34;;;;;;;12.27;7.00;;;8.90;94.50;;;;;;5034123;28;20547;-77
2021/11/03 10:37:15;;;;;;;8.83;5.60;;;9.00;94.40;;;;;;5033512;28;20409;-76
2021/11/03 10:40:05;;;;;;;8.77;6.27;;;9.00;94.40;;;;;;5033888;28;20417;-76
2021/11/03 10:42:55;;;;;;;7.20;4.97;;;9.00;94.40;;;;;;5035467;28;20413;-79
2021/11/03 10:45:23;;;;;;;6.67;5.17;;;9.00;94.50;;;;;;5035369;28;20873;-76
2021/11/03 10:48:08;;;;;;;8.83;5.87;;;9.00;94.50;;;;;;5033900;28;20405;-75
2021/11/03 10:50:39;;;;;;;8.40;5.20;;;9.00;94.80;;;;;;5015511;28;20425;-76
2021/11/03 10:53:21;;;;;;;8.57;5.53;;;9.00;95.10;;;;;;5032854;28;20841;-76
2021/11/03 10:55:57;;;;;;;8.93;5.70;;;9.00;94.90;;;;;;5039221;28;20763;-77
2021/11/03 10:58:38;;;;;;;9.40;5.40;;;8.90;95.00;;;;;;5035876;28;20527;-77
2021/11/03 11:01:13;;;;;;;8.67;5.33;;;8.90;95.00;;;;;;5038237;28;20420;-76
2021/11/03 11:04:18;;;;;;;9.90;6.10;;;8.90;95.20;;;;;;5040227;28;20523;-76
2021/11/03 11:06:52;;;;;;;8.93;5.17;;;8.90;95.30;;;;;;5014153;28;20425;-75
2021/11/03 11:09:38;;;;;;;9.43;6.70;;;8.90;95.40;;;;;;5033038;28;20416;-76
2021/11/03 11:12:22;;;;;;;13.50;6.43;;;8.90;95.50;;;;;;5015129;28;20437;-76
2021/11/03 11:14:51;;;;;;;8.70;5.90;;;8.90;95.40;;;;;;5015315;28;20784;-76
2021/11/03 11:17:37;;;;;;;8.83;6.00;;;8.90;95.60;;;;;;5032877;28;20412;-75
2021/11/03 11:20:19;;;;;;;9.10;5.80;;;8.90;95.80;;;;;;5032607;28;20415;-76
2021/11/03 11:22:55;;;;;;;11.17;5.70;;;8.90;95.90;;;;;;5013960;28;20421;-77
2021/11/03 11:25:33;;;;;;;8.60;5.80;;;8.90;96.00;;;;;;5015264;28;20934;-77
2021/11/03 11:28:21;;;;;;;9.67;6.20;;;8.90;95.90;;;;;;5032721;28;20424;-77
2021/11/03 11:31:00;;;;;;;8.00;4.90;;;8.90;96.00;;;;;;5034810;28;20512;-77
2021/11/03 11:33:34;;;;;;;10.50;6.57;;;8.90;96.10;;;;;;5032189;28;20460;-77
2021/11/03 11:36:05;;;;;;;9.17;5.83;;;8.90;96.20;;;;;;5033709;28;20409;-77
2021/11/03 11:39:03;;;;;;;10.67;6.10;;;8.90;96.30;;;;;;5033078;28;20488;-76
2021/11/03 11:41:58;;;;;;;20.30;8.17;;;8.90;96.40;;;;;;5014000;28;20413;-76
2021/11/03 11:44:28;;;;;;;14.47;8.67;;;9.00;96.90;;;;;;5032903;28;20457;-77
2021/11/03 11:46:57;;;;;;;10.37;6.10;;;9.00;96.90;;;;;;5032634;28;20405;-75
2021/11/03 11:49:31;;;;;;;8.53;5.40;;;9.10;96.80;;;;;;5032032;28;20504;-76
2021/11/03 11:52:05;;;;;;;9.50;6.50;;;9.10;96.50;;;;;;5013525;28;20835;-76
2021/11/03 11:54:41;;;;;;;6.43;5.13;;;9.00;96.50;;;;;;5013936;28;20437;-77
2021/11/03 11:57:13;;;;;;;7.40;4.83;;;9.00;96.60;;;;;;5033106;28;20467;-76
2021/11/03 11:59:59;;;;;;;7.70;5.40;;;9.00;96.70;;;;;;5035513;28;20416;-76
2021/11/03 12:02:27;;;;;;;10.67;6.13;;;9.00;96.80;;;;;;5015936;28;20436;-76
2021/11/03 12:05:22;;;;;;;9.20;6.00;;;9.00;96.90;;;;;;5037269;28;20865;-77
2021/11/03 12:08:09;;;;;;;11.17;7.70;;;9.00;97.00;;;;;;4961770;28;20541;-79
2021/11/03 12:10:55;;;;;;;11.13;6.20;;;9.00;97.00;;;;;;5015465;28;20404;-77
2021/11/03 12:13:30;;;;;;;8.60;5.57;;;9.00;97.20;;;;;;5015799;28;20786;-77
2021/11/03 12:15:56;;;;;;;7.20;5.57;;;9.00;97.20;;;;;;5031723;28;20400;-76
2021/11/03 12:18:24;;;;;;;10.40;5.47;;;9.00;97.30;;;;;;5013941;28;20523;-77
2021/11/03 12:21:02;;;;;;;8.83;5.60;;;9.00;97.30;;;;;;5032794;28;20182;-77
2021/11/03 12:23:46;;;;;;;11.33;6.30;;;9.00;97.40;;;;;;5033087;28;20842;-77
2021/11/03 12:26:28;;;;;;;11.20;6.40;;;9.00;97.40;;;;;;5031614;28;20456;-76
2021/11/03 12:28:54;;;;;;;11.10;7.10;;;9.10;97.60;;;;;;5032031;28;20405;-76
2021/11/03 12:31:41;;;;;;;9.60;6.07;;;9.10;97.60;;;;;;5033418;28;20475;-77
2021/11/03 12:34:07;;;;;;;12.40;5.43;;;9.10;97.60;;;;;;5015108;28;20186;-77
2021/11/03 12:36:49;;;;;;;12.63;6.47;;;9.10;97.60;;;;;;5014245;28;20471;-78
2021/11/03 12:39:30;;;;;;;9.47;7.10;;;9.20;97.60;;;;;;5031480;28;20174;-76
2021/11/03 12:42:18;;;;;;;6.67;5.33;;;9.20;97.50;;;;;;5030651;28;20902;-76
2021/11/03 12:44:52;;;;;;;7.30;5.67;;;9.20;97.40;;;;;;5031158;28;20810;-77
2021/11/03 12:47:28;;;;;;;17.80;6.53;;;9.20;97.40;;;;;;5031417;28;20899;-77
2021/11/03 12:50:25;;;;;;;10.90;6.60;;;9.20;97.30;;;;;;5013527;28;20495;-78
2021/11/03 12:53:16;;;;;;;11.97;5.43;;;9.20;97.20;;;;;;5027444;28;20439;-77
2021/11/03 12:56:10;;;;;;;8.70;4.60;;;9.20;97.30;;;;;;5018279;28;20424;-77
2021/11/03 12:58:45;;;;;;;6.60;4.40;;;9.20;97.10;;;;;;5036255;28;20585;-76
2021/11/03 13:01:54;;;;;;;5.67;4.23;;;9.20;96.90;;;;;;5018986;28;20754;-76
2021/11/03 13:04:33;;;;;;;7.40;5.17;;;9.20;96.80;;;;;;4948379;29;20495;-77
2021/11/03 13:07:17;;;;;;;8.20;4.93;;;9.20;96.80;;;;;;4962559;29;20419;-77
2021/11/03 13:09:59;;;;;;;10.63;5.27;;;9.20;96.60;;;;;;5020007;28;20423;-77